Voorhees Township, New Jersey
Current Conditions -  °F | °C
As of 9:18 AM on Thursday 23 Oct 2014 (Local Time) from KVAY Reporting Station
Light Rain Light Rain  
Wind Chill: 50°   Ceiling: 1100
Heat Index: 50°   Visibility: 3mi
Dew Point: 47°   Wind: 9mph
Humidity: 89%   Direction: 300°WNW
Pressure: 29.75"   Gusts: NA
Location:  39.8445°N, 74.9532°W
Report Text: KVAY 231318Z AUTO 30008KT 3SM -RA BR BKN011 BKN017 OVC022 10/08 A2975 RMK AO2 RAB1259 P0000 T01000083
Loading
Personal Weather Stations






























Interactive Weather Map
Tropical Storm Tracking
New forecast layout! Learn more

10-Day Weather Forecast

Advertisements
Track Severe Weather on mobile